createdAt,value
2024-05-09T00:00:36.193Z,97138.91
2024-05-09T00:03:09.247Z,97116.38
2024-05-09T00:05:37.570Z,97142.34
2024-05-09T00:08:05.842Z,97120.69
2024-05-09T00:10:37.222Z,97129.38
2024-05-09T00:13:10.738Z,97130.25
2024-05-09T00:15:38.019Z,97148.44
2024-05-09T00:18:06.654Z,97142.41
2024-05-09T00:20:38.910Z,97125.06
2024-05-09T00:23:10.584Z,97125.03
2024-05-09T00:25:38.029Z,97120.66
2024-05-09T00:28:05.402Z,97118.06
2024-05-09T00:30:35.420Z,97121.53
2024-05-09T00:33:08.871Z,97120.63
2024-05-09T00:35:37.150Z,97112.00
2024-05-09T00:38:04.597Z,97132.81
2024-05-09T00:40:41.757Z,97123.25
2024-05-09T00:43:14.581Z,97108.53
2024-05-09T00:45:42.285Z,97119.78
2024-05-09T00:48:11.263Z,97108.53
2024-05-09T00:50:41.438Z,97129.38
2024-05-09T00:53:13.290Z,97107.72
2024-05-09T00:55:40.325Z,97100.75
2024-05-09T00:58:08.101Z,97121.53
2024-05-09T01:00:39.728Z,97079.09
2024-05-09T01:03:13.431Z,97072.16
2024-05-09T01:05:43.107Z,97100.75
2024-05-09T01:08:11.036Z,97081.69
2024-05-09T01:10:38.304Z,97091.22
2024-05-09T01:13:05.960Z,97105.09
2024-05-09T01:15:34.177Z,97116.34
2024-05-09T01:18:12.905Z,97102.56
2024-05-09T01:20:44.875Z,97115.56
2024-05-09T01:23:14.932Z,97112.97
2024-05-09T01:25:43.705Z,97115.56
2024-05-09T01:28:10.543Z,97104.31
2024-05-09T01:30:38.236Z,97104.31
2024-05-09T01:33:07.640Z,97119.00
2024-05-09T01:35:36.572Z,97087.84
2024-05-09T01:38:03.652Z,97076.56
2024-05-09T01:40:37.249Z,97068.75
2024-05-09T01:43:10.566Z,97105.13
2024-05-09T01:45:38.845Z,97030.66
2024-05-09T01:48:06.363Z,97125.09
2024-05-09T01:50:38.581Z,97094.75
2024-05-09T01:53:10.280Z,97073.94
2024-05-09T01:55:37.518Z,97093.84
2024-05-09T01:58:04.574Z,97112.03
2024-05-09T02:00:38.708Z,97074.81
2024-05-09T02:03:11.775Z,97124.19
2024-05-09T02:05:43.400Z,97096.50
2024-05-09T02:08:15.236Z,97119.84
2024-05-09T02:10:44.116Z,97116.41
2024-05-09T02:13:11.135Z,97108.59
2024-05-09T02:15:38.053Z,97099.97
2024-05-09T02:18:05.503Z,97119.06
2024-05-09T02:20:36.284Z,97119.06
2024-05-09T02:23:06.207Z,97114.75
2024-05-09T02:25:33.491Z,97126.03
2024-05-09T02:28:00.268Z,97091.41
2024-05-09T02:30:37.711Z,97104.38
2024-05-09T02:33:08.377Z,97070.59
2024-05-09T02:35:36.059Z,97100.03
2024-05-09T02:38:03.023Z,97126.88
2024-05-09T02:40:36.611Z,97119.94
2024-05-09T02:43:06.644Z,97128.63
2024-05-09T02:45:34.193Z,97123.41
2024-05-09T02:48:01.932Z,97097.41
2024-05-09T02:50:34.760Z,97102.59
2024-05-09T02:53:09.872Z,97087.88
2024-05-09T02:55:38.010Z,97084.41
2024-05-09T02:58:06.502Z,97113.03
2024-05-09T03:00:39.057Z,97103.47
2024-05-09T03:03:10.795Z,97070.56
2024-05-09T03:05:41.495Z,97068.00
2024-05-09T03:08:09.716Z,97121.69
2024-05-09T03:10:38.649Z,97118.22
2024-05-09T03:13:07.719Z,97071.44
2024-05-09T03:15:34.644Z,97092.22
2024-05-09T03:18:01.730Z,97118.22
2024-05-09T03:20:33.997Z,97107.84
2024-05-09T03:23:02.957Z,97126.03
2024-05-09T03:25:30.088Z,97127.75
2024-05-09T03:27:56.931Z,97113.91
2024-05-09T03:30:38.377Z,97116.50
2024-05-09T03:33:14.039Z,97113.94
2024-05-09T03:35:43.328Z,97117.38
2024-05-09T03:38:10.715Z,97113.06
2024-05-09T03:40:52.839Z,97130.44
2024-05-09T03:43:20.512Z,97120.00
2024-05-09T03:45:49.357Z,97126.94
2024-05-09T03:48:16.833Z,97107.84
2024-05-09T03:50:44.447Z,97115.63
2024-05-09T03:53:13.138Z,97139.06
2024-05-09T03:55:40.081Z,97104.41
2024-05-09T03:58:08.057Z,97130.38
2024-05-09T04:00:38.678Z,97127.78
2024-05-09T04:05:58.644Z,97127.81
2024-05-09T04:08:25.460Z,97125.19
2024-05-09T04:10:52.290Z,97107.88
2024-05-09T04:13:18.999Z,97095.72
2024-05-09T04:15:45.887Z,97120.03
2024-05-09T04:18:12.843Z,97147.78
2024-05-09T04:20:41.498Z,97120.03
2024-05-09T04:23:13.632Z,97146.00
2024-05-09T04:25:45.617Z,97154.69
2024-05-09T04:28:13.273Z,97153.81
2024-05-09T04:30:41.514Z,97128.69
2024-05-09T04:33:12.076Z,97119.16
2024-05-09T04:35:45.667Z,97139.09
2024-05-09T04:38:14.416Z,97140.81
2024-05-09T04:40:41.783Z,97156.44
2024-05-09T04:43:15.397Z,97160.75
2024-05-09T04:45:42.909Z,97140.81
2024-05-09T04:48:09.940Z,97153.81
2024-05-09T04:50:39.049Z,97152.09
2024-05-09T04:53:10.868Z,97164.22
2024-05-09T04:55:39.426Z,97145.13
2024-05-09T04:58:09.886Z,97162.44
2024-05-09T05:00:38.825Z,97145.97
2024-05-09T05:03:10.583Z,97162.41
2024-05-09T05:05:44.076Z,97144.22
2024-05-09T05:08:13.362Z,97137.31
2024-05-09T05:10:41.244Z,97147.69
2024-05-09T05:13:20.068Z,97128.63
2024-05-09T05:15:58.348Z,97126.91
2024-05-09T05:18:29.027Z,97139.91
2024-05-09T05:20:56.580Z,97137.28
2024-05-09T05:23:24.690Z,97171.03
2024-05-09T05:25:54.272Z,97159.75
2024-05-09T05:28:22.191Z,97172.75
2024-05-09T05:30:49.471Z,97164.09
2024-05-09T05:33:19.031Z,97141.56
2024-05-09T05:35:47.244Z,97159.69
2024-05-09T05:38:14.433Z,97171.81
2024-05-09T05:40:41.517Z,97176.09
2024-05-09T05:43:10.468Z,97170.88
2024-05-09T05:45:38.030Z,97150.94
2024-05-09T05:48:06.598Z,97172.56
2024-05-09T05:50:36.910Z,97172.50
2024-05-09T05:53:08.067Z,97182.94
2024-05-09T05:55:36.192Z,97166.38
2024-05-09T05:58:03.396Z,97182.78
2024-05-09T06:00:37.840Z,97184.44
2024-05-09T06:03:08.447Z,97179.16
2024-05-09T06:05:36.990Z,97183.38
2024-05-09T06:08:04.225Z,97185.00
2024-05-09T06:10:37.943Z,97166.75
2024-05-09T06:13:07.389Z,97180.47
2024-05-09T06:15:34.367Z,97189.03
2024-05-09T06:18:01.705Z,97171.66
2024-05-09T06:20:35.672Z,97181.19
2024-05-09T06:23:09.482Z,97180.47
2024-05-09T06:25:36.938Z,97168.25
2024-05-09T06:28:03.983Z,97166.59
2024-05-09T06:30:38.676Z,97179.56
2024-05-09T06:33:12.955Z,97187.34
2024-05-09T06:35:42.610Z,97188.16
2024-05-09T06:38:10.048Z,97178.59
2024-05-09T06:40:41.263Z,97180.19
2024-05-09T06:43:18.347Z,97167.19
2024-05-09T06:45:48.061Z,97159.50
2024-05-09T06:48:18.324Z,97175.09
2024-05-09T06:50:46.465Z,97176.84
2024-05-09T06:53:17.317Z,97171.50
2024-05-09T06:55:44.265Z,97166.19
2024-05-09T06:58:11.028Z,97182.63
2024-05-09T07:00:40.358Z,97179.19
2024-05-09T07:03:15.667Z,97159.22
2024-05-09T07:05:46.234Z,97172.97
2024-05-09T07:08:14.656Z,97147.91
2024-05-09T07:10:41.601Z,97186.00
2024-05-09T07:13:12.655Z,97161.72
2024-05-09T07:15:40.218Z,97184.22
2024-05-09T07:18:18.572Z,97181.53
2024-05-09T07:20:48.188Z,97185.84
2024-05-09T07:23:16.761Z,97180.63
2024-05-09T07:25:43.822Z,97160.56
2024-05-09T07:28:13.136Z,97148.22
2024-05-09T07:30:39.945Z,97180.94
2024-05-09T07:33:06.909Z,97167.06
2024-05-09T07:35:34.223Z,97180.06
2024-05-09T07:38:01.305Z,97134.03
2024-05-09T07:40:34.885Z,97159.78
2024-05-09T07:43:08.094Z,97175.97
2024-05-09T07:52:32.566Z,97154.25
2024-05-09T07:55:55.444Z,97142.63
2024-05-09T07:58:27.075Z,97165.16
2024-05-09T08:00:54.871Z,97090.75
2024-05-09T08:03:23.149Z,97165.59
2024-05-09T08:05:53.459Z,97149.63
2024-05-09T08:08:20.450Z,97152.09
2024-05-09T08:10:47.383Z,97150.69
2024-05-09T08:13:14.323Z,97138.81
2024-05-09T08:15:41.469Z,97149.31
2024-05-09T08:18:09.863Z,97170.16
2024-05-09T08:20:38.434Z,97158.84
2024-05-09T08:23:05.607Z,97144.88
2024-05-09T08:25:32.515Z,97149.84
2024-05-09T08:27:59.283Z,97141.78
2024-05-09T08:30:32.864Z,97148.56
2024-05-09T08:33:04.342Z,97127.66
2024-05-09T08:35:31.752Z,97134.69
2024-05-09T08:37:59.055Z,97152.69
2024-05-09T08:40:33.396Z,97150.00
2024-05-09T08:43:03.233Z,97155.91
2024-05-09T08:45:30.873Z,97124.66
2024-05-09T08:48:00.058Z,97139.25
2024-05-09T08:50:35.482Z,97147.00
2024-05-09T08:53:05.611Z,97154.03
2024-05-09T08:55:32.621Z,97143.56
2024-05-09T08:58:01.139Z,97125.31
2024-05-09T09:00:35.833Z,97152.03
2024-05-09T09:03:06.992Z,97142.09
2024-05-09T09:05:38.186Z,97136.03
2024-05-09T09:08:08.018Z,97134.09
2024-05-09T09:10:35.588Z,97128.81
2024-05-09T09:13:04.717Z,97132.09
2024-05-09T09:15:32.053Z,97149.34
2024-05-09T09:18:00.229Z,97142.50
2024-05-09T09:20:34.228Z,97150.25
2024-05-09T09:23:04.024Z,97148.31
2024-05-09T09:25:30.924Z,97124.13
2024-05-09T09:27:58.545Z,97124.25
2024-05-09T09:30:35.028Z,97141.00
2024-05-09T09:33:13.582Z,97150.09
2024-05-09T09:35:42.711Z,97150.84
2024-05-09T09:38:10.710Z,97155.88
2024-05-09T09:40:46.652Z,97134.88
2024-05-09T09:43:23.076Z,97157.28
2024-05-09T09:45:51.035Z,97146.75
2024-05-09T09:48:19.822Z,97122.44
2024-05-09T09:50:48.331Z,97151.84
2024-05-09T09:53:16.056Z,97130.47
2024-05-09T09:55:43.827Z,97115.69
2024-05-09T09:58:13.525Z,97143.13
2024-05-09T10:00:41.379Z,97117.38
2024-05-09T10:03:08.700Z,97136.31
2024-05-09T10:05:35.993Z,97145.94
2024-05-09T10:08:12.497Z,97137.97
2024-05-09T10:10:40.137Z,97147.72
2024-05-09T10:13:07.880Z,97150.06
2024-05-09T10:15:51.429Z,97135.94
2024-05-09T10:18:27.290Z,97141.88
2024-05-09T10:20:56.446Z,97125.81
2024-05-09T10:23:24.388Z,97137.97
2024-05-09T10:26:04.803Z,97137.66
2024-05-09T10:28:33.181Z,97135.69
2024-05-09T10:31:07.530Z,97135.78
2024-05-09T10:33:51.369Z,97134.13
2024-05-09T10:36:24.403Z,97132.13
2024-05-09T10:38:52.794Z,97130.09
2024-05-09T10:41:20.598Z,97130.28
2024-05-09T10:43:47.877Z,97115.41
2024-05-09T10:46:15.090Z,97110.13
2024-05-09T10:48:44.540Z,97118.44
2024-05-09T10:51:12.036Z,97123.66
2024-05-09T10:53:43.287Z,97107.13
2024-05-09T10:56:10.562Z,97107.69
2024-05-09T10:58:37.500Z,97097.72
2024-05-09T11:01:07.005Z,97113.16
2024-05-09T11:03:35.331Z,97098.28
2024-05-09T11:06:02.920Z,97103.97
2024-05-09T11:08:32.797Z,97101.13
2024-05-09T11:11:02.997Z,97093.75
2024-05-09T11:13:31.292Z,97098.28
2024-05-09T11:15:59.248Z,97091.38
2024-05-09T11:18:30.694Z,97092.72
2024-05-09T11:21:00.600Z,97101.44
2024-05-09T11:23:30.100Z,97081.88
2024-05-09T11:26:00.094Z,97078.84
2024-05-09T11:28:30.983Z,97075.94
2024-05-09T11:31:06.874Z,97079.66
2024-05-09T11:33:40.216Z,97089.84
2024-05-09T11:36:08.935Z,97087.53
2024-05-09T11:38:35.988Z,97083.09
2024-05-09T11:41:03.601Z,97074.00
2024-05-09T11:43:30.379Z,97071.63
2024-05-09T11:45:58.188Z,97069.44
2024-05-09T11:48:26.195Z,97058.78
2024-05-09T11:50:54.373Z,97069.06
2024-05-09T11:53:21.140Z,97075.63
2024-05-09T11:55:47.897Z,97056.88
2024-05-09T11:58:17.148Z,97055.31
2024-05-09T12:00:44.565Z,97062.88
2024-05-09T12:03:11.746Z,97065.19
2024-05-09T12:08:06.348Z,97058.13
2024-05-09T12:10:35.631Z,97054.50
2024-05-09T12:13:05.559Z,97048.50
2024-05-09T12:15:36.248Z,97052.00
2024-05-09T12:18:05.363Z,97038.53
2024-05-09T12:20:37.380Z,97045.63
2024-05-09T12:23:07.783Z,97045.88
2024-05-09T12:25:36.391Z,97046.13
2024-05-09T12:28:03.525Z,97046.69
2024-05-09T12:30:36.637Z,97034.13
2024-05-09T12:33:15.377Z,97017.94
2024-05-09T12:35:45.715Z,97027.63
2024-05-09T12:38:15.307Z,97036.28
2024-05-09T12:40:42.597Z,97027.03
2024-05-09T12:43:10.629Z,97021.97
2024-05-09T12:45:38.738Z,97015.66
2024-05-09T12:48:08.385Z,97014.69
2024-05-09T12:50:36.416Z,96991.44
2024-05-09T12:53:04.550Z,97005.06
2024-05-09T12:55:43.870Z,97006.00
2024-05-09T12:58:19.561Z,97009.91
2024-05-09T13:00:47.129Z,97000.31
2024-05-09T13:03:14.771Z,96990.31
2024-05-09T13:05:45.816Z,97000.31
2024-05-09T13:08:13.730Z,96992.13
2024-05-09T13:10:41.275Z,97001.38
2024-05-09T13:13:12.096Z,96993.00
2024-05-09T13:15:39.493Z,96973.78
2024-05-09T13:18:06.872Z,96952.94
2024-05-09T13:20:35.696Z,96960.47
2024-05-09T13:23:04.271Z,96972.09
2024-05-09T13:25:31.604Z,96966.63
2024-05-09T13:27:58.523Z,96959.94
2024-05-09T13:30:30.242Z,96958.91
2024-05-09T13:33:06.590Z,96949.81
2024-05-09T13:35:35.212Z,96949.31
2024-05-09T13:38:03.216Z,96952.34
2024-05-09T13:40:34.348Z,96956.34
2024-05-09T13:43:05.913Z,96951.66
2024-05-09T13:45:33.526Z,96937.19
2024-05-09T13:48:02.000Z,96936.47
2024-05-09T13:50:34.468Z,96940.72
2024-05-09T13:53:05.782Z,96937.59
2024-05-09T13:55:33.630Z,96944.09
2024-05-09T13:58:01.846Z,96949.38
2024-05-09T14:00:41.780Z,96949.28
2024-05-09T14:03:17.621Z,96938.63
2024-05-09T14:05:48.015Z,96954.91
2024-05-09T14:08:15.913Z,96949.22
2024-05-09T14:10:45.094Z,96939.75
2024-05-09T14:13:13.003Z,96947.84
2024-05-09T14:15:40.507Z,96938.06
2024-05-09T14:18:13.397Z,96922.44
2024-05-09T14:20:42.932Z,96939.47
2024-05-09T14:23:10.255Z,96932.94
2024-05-09T14:25:41.860Z,96917.22
2024-05-09T14:28:10.584Z,96915.34
2024-05-09T14:30:38.736Z,96923.28
2024-05-09T14:33:07.452Z,96921.06
2024-05-09T14:35:35.265Z,96911.31
2024-05-09T14:38:02.400Z,96906.66
2024-05-09T14:40:39.363Z,96910.66
2024-05-09T14:43:14.643Z,96907.53
2024-05-09T14:45:42.242Z,96901.53
2024-05-09T14:48:09.849Z,96901.13
2024-05-09T14:50:39.520Z,96905.47
2024-05-09T14:53:11.648Z,96890.00
2024-05-09T14:55:40.590Z,96901.75
2024-05-09T14:58:09.855Z,96905.31
2024-05-09T15:00:41.649Z,96906.25
2024-05-09T15:03:11.859Z,96891.16
2024-05-09T15:05:39.078Z,96901.25
2024-05-09T15:08:07.903Z,96893.53
2024-05-09T15:10:36.516Z,96895.16
2024-05-09T15:13:04.875Z,96878.03
2024-05-09T15:15:31.907Z,96897.91
2024-05-09T15:17:59.273Z,96885.19
2024-05-09T15:20:33.265Z,96882.38
2024-05-09T15:23:03.192Z,96873.91
2024-05-09T15:25:30.479Z,96867.03
2024-05-09T15:27:57.481Z,96856.22
2024-05-09T15:30:30.583Z,96860.53
2024-05-09T15:33:00.360Z,96868.66
2024-05-09T15:35:27.461Z,96868.88
2024-05-09T15:37:54.596Z,96891.78
2024-05-09T15:40:30.719Z,96888.63
2024-05-09T15:43:05.637Z,96879.16
2024-05-09T15:45:32.979Z,96881.28
2024-05-09T15:48:00.117Z,96863.22
2024-05-09T15:50:35.885Z,96846.91
2024-05-09T15:53:07.683Z,96857.69
2024-05-09T15:55:35.339Z,96855.34
2024-05-09T15:58:03.261Z,96882.19
2024-05-09T16:00:37.856Z,96858.56
2024-05-09T16:03:13.626Z,96848.75
2024-05-09T16:05:46.654Z,96853.59
2024-05-09T16:08:15.240Z,96866.63
2024-05-09T16:10:45.954Z,96784.16
2024-05-09T16:13:14.041Z,96705.53
2024-05-09T16:15:41.338Z,96843.69
2024-05-09T16:18:08.554Z,96881.91
2024-05-09T16:20:40.114Z,96852.94
2024-05-09T16:23:10.275Z,96864.44
2024-05-09T16:25:37.743Z,96871.03
2024-05-09T16:28:10.305Z,96833.28
2024-05-09T16:30:39.753Z,96867.91
2024-05-09T16:33:07.611Z,96872.50
2024-05-09T16:35:35.375Z,96863.50
2024-05-09T16:38:02.961Z,96863.66
2024-05-09T16:40:37.651Z,96852.97
2024-05-09T16:43:08.324Z,96858.88
2024-05-09T16:45:35.449Z,96844.81
2024-05-09T16:48:02.869Z,96814.59
2024-05-09T16:50:33.741Z,96859.94
2024-05-09T16:53:02.822Z,96855.31
2024-05-09T16:55:29.717Z,96842.47
2024-05-09T16:57:57.362Z,96826.28
2024-05-09T17:00:35.233Z,96854.81
2024-05-09T17:03:10.032Z,96850.63
2024-05-09T17:05:38.161Z,96830.31
2024-05-09T17:08:06.010Z,96846.91
2024-05-09T17:10:34.960Z,96829.84
2024-05-09T17:13:04.675Z,96832.72
2024-05-09T17:15:33.407Z,96851.63
2024-05-09T17:18:01.241Z,96829.44
2024-05-09T17:20:33.242Z,96837.41
2024-05-09T17:23:04.820Z,96851.19
2024-05-09T17:25:32.377Z,96837.66
2024-05-09T17:28:07.507Z,96841.84
2024-05-09T17:30:37.697Z,96851.34
2024-05-09T17:33:07.904Z,96826.94
2024-05-09T17:35:36.061Z,96831.63
2024-05-09T17:38:03.059Z,96832.63
2024-05-09T17:40:34.770Z,96857.88
2024-05-09T17:43:05.276Z,96825.28
2024-05-09T17:45:32.778Z,96854.81
2024-05-09T17:48:00.152Z,96839.50
2024-05-09T17:50:34.845Z,96846.81
2024-05-09T17:53:04.523Z,96861.72
2024-05-09T17:55:31.397Z,96874.56
2024-05-09T17:57:58.398Z,96870.81
2024-05-09T18:02:56.149Z,96872.66
2024-05-09T18:05:23.462Z,96863.69
2024-05-09T18:07:52.670Z,96859.84
2024-05-09T18:10:25.795Z,96873.03
2024-05-09T18:12:59.673Z,96814.75
2024-05-09T18:15:26.412Z,96841.75
2024-05-09T18:17:53.258Z,96861.81
2024-05-09T18:20:31.873Z,96880.31
2024-05-09T18:23:06.906Z,96851.28
2024-05-09T18:25:33.610Z,96821.56
2024-05-09T18:28:02.123Z,96871.25
2024-05-09T18:30:34.417Z,96847.44
2024-05-09T18:33:04.990Z,96883.22
2024-05-09T18:35:33.256Z,96871.56
2024-05-09T18:38:00.387Z,96865.75
2024-05-09T18:40:33.661Z,96878.94
2024-05-09T18:43:05.232Z,96889.56
2024-05-09T18:45:33.281Z,96896.69
2024-05-09T18:48:00.440Z,96884.75
2024-05-09T18:50:34.787Z,96852.97
2024-05-09T18:53:06.855Z,96906.69
2024-05-09T18:55:34.658Z,96867.13
2024-05-09T18:58:01.703Z,96901.00
2024-05-09T19:00:35.056Z,96917.56
2024-05-09T19:03:09.424Z,96902.13
2024-05-09T19:05:39.415Z,96890.94
2024-05-09T19:08:07.527Z,96875.47
2024-05-09T19:10:35.863Z,96905.91
2024-05-09T19:13:08.150Z,96923.25
2024-05-09T19:15:38.905Z,96911.25
2024-05-09T19:18:06.311Z,96899.19
2024-05-09T19:20:35.330Z,96927.78
2024-05-09T19:23:03.696Z,96912.38
2024-05-09T19:25:30.922Z,96906.38
2024-05-09T19:27:58.218Z,96922.91
2024-05-09T19:30:34.492Z,96923.84
2024-05-09T19:33:06.911Z,96948.97
2024-05-09T19:35:33.749Z,96903.25
2024-05-09T19:38:00.731Z,96905.84
2024-05-09T19:40:32.128Z,96950.84
2024-05-09T19:43:03.283Z,96934.44
2024-05-09T19:45:31.283Z,96957.78
2024-05-09T19:47:58.775Z,96955.22
2024-05-09T19:50:35.562Z,96958.72
2024-05-09T19:53:08.483Z,96962.19
2024-05-09T19:55:35.305Z,96947.53
2024-05-09T19:58:05.172Z,96945.81
2024-05-09T20:00:39.838Z,96962.25
2024-05-09T20:03:34.711Z,96961.38
2024-05-09T20:06:02.526Z,96957.94
2024-05-09T20:08:29.253Z,96943.22
2024-05-09T20:10:56.225Z,96938.91
2024-05-09T20:13:23.266Z,96945.84
2024-05-09T20:15:50.169Z,96939.75
2024-05-09T20:18:18.200Z,96951.03
2024-05-09T20:20:46.111Z,96930.28
2024-05-09T20:23:14.097Z,96921.66
2024-05-09T20:25:41.785Z,96967.53
2024-05-09T20:28:08.736Z,96950.22
2024-05-09T20:30:36.248Z,96958.88
2024-05-09T20:33:05.482Z,96963.22
2024-05-09T20:35:33.897Z,96959.72
2024-05-09T20:38:01.519Z,96938.09
2024-05-09T20:40:33.334Z,96906.03
2024-05-09T20:43:04.090Z,96968.38
2024-05-09T20:45:31.113Z,96965.81
2024-05-09T20:47:58.249Z,96961.44
2024-05-09T20:50:35.586Z,96912.09
2024-05-09T20:53:08.783Z,96933.72
2024-05-09T20:55:35.555Z,96943.25
2024-05-09T20:58:02.416Z,96938.03
2024-05-09T21:00:35.555Z,96945.81
2024-05-09T21:03:07.516Z,96936.28
2024-05-09T21:05:35.341Z,96975.25
2024-05-09T21:08:03.076Z,96922.38
2024-05-09T21:10:33.006Z,96948.41
2024-05-09T21:13:02.596Z,96962.25
2024-05-09T21:15:30.077Z,96962.28
2024-05-09T21:17:57.017Z,96943.22
2024-05-09T21:20:30.882Z,96941.44
2024-05-09T21:22:59.150Z,96946.66
2024-05-09T21:25:25.996Z,96962.22
2024-05-09T21:27:53.059Z,96941.44
2024-05-09T21:30:31.430Z,96934.50
2024-05-09T21:33:06.149Z,96967.34
2024-05-09T21:35:33.015Z,96938.75
2024-05-09T21:37:59.858Z,96951.72
2024-05-09T21:40:33.701Z,96939.56
2024-05-09T21:43:02.758Z,96947.31
2024-05-09T21:45:29.691Z,96945.59
2024-05-09T21:47:56.586Z,96958.56
2024-05-09T21:50:31.506Z,96956.81
2024-05-09T21:53:05.405Z,96942.91
2024-05-09T21:55:32.183Z,96932.53
2024-05-09T21:57:59.013Z,96912.59
2024-05-09T22:00:32.998Z,96952.41
2024-05-09T22:03:04.626Z,96943.72
2024-05-09T22:05:31.998Z,96935.03
2024-05-09T22:07:59.279Z,96941.09
2024-05-09T22:10:31.136Z,96931.53
2024-05-09T22:13:01.675Z,96927.22
2024-05-09T22:15:28.694Z,96909.84
2024-05-09T22:17:56.849Z,96941.88
2024-05-09T22:20:33.517Z,96926.19
2024-05-09T22:23:04.456Z,96909.66
2024-05-09T22:25:32.246Z,96940.13
2024-05-09T22:28:00.420Z,96927.84
2024-05-09T22:30:34.619Z,96894.94
2024-05-09T22:33:05.924Z,96949.53
2024-05-09T22:35:33.119Z,96922.66
2024-05-09T22:37:59.985Z,96919.22
2024-05-09T22:40:38.270Z,96922.63
2024-05-09T22:43:13.333Z,96919.09
2024-05-09T22:45:40.331Z,96904.38
2024-05-09T22:48:08.462Z,96912.16
2024-05-09T22:50:35.491Z,96941.59
2024-05-09T22:53:02.431Z,96906.06
2024-05-09T22:55:29.181Z,96919.03
2024-05-09T22:57:56.238Z,96947.59
2024-05-09T23:00:31.080Z,96907.72
2024-05-09T23:03:00.427Z,96935.53
2024-05-09T23:05:28.315Z,96938.97
2024-05-09T23:07:55.499Z,96913.78
2024-05-09T23:10:30.817Z,96937.16
2024-05-09T23:13:02.373Z,96913.69
2024-05-09T23:15:29.243Z,96940.50
2024-05-09T23:17:57.070Z,96904.06
2024-05-09T23:20:33.427Z,96905.78
2024-05-09T23:23:05.615Z,96930.91
2024-05-09T23:25:32.576Z,96909.25
2024-05-09T23:27:59.688Z,96880.66
2024-05-09T23:30:36.861Z,96908.41
2024-05-09T23:33:06.970Z,96932.63
2024-05-09T23:35:33.854Z,96932.53
2024-05-09T23:38:00.683Z,96924.75
2024-05-09T23:40:37.420Z,96905.53
2024-05-09T23:43:08.248Z,96911.66
2024-05-09T23:45:35.352Z,96920.25
2024-05-09T23:48:02.901Z,96920.22
2024-05-09T23:50:35.427Z,96917.69
2024-05-09T23:53:05.699Z,96911.66
2024-05-09T23:55:33.035Z,96891.72
2024-05-09T23:58:00.259Z,96899.53
